createdAt,value
2023-04-28T00:01:41.962Z,5.20
2023-04-28T00:04:09.219Z,5.20
2023-04-28T00:06:37.181Z,5.20
2023-04-28T00:09:04.105Z,5.10
2023-04-28T00:11:30.934Z,5.10
2023-04-28T00:13:57.777Z,5.00
2023-04-28T00:16:24.682Z,5.00
2023-04-28T00:18:52.066Z,5.00
2023-04-28T00:21:18.910Z,5.00
2023-04-28T00:23:45.910Z,5.00
2023-04-28T00:26:12.829Z,4.90
2023-04-28T00:28:39.892Z,4.90
2023-04-28T00:31:14.529Z,4.90
2023-04-28T00:33:42.607Z,4.80
2023-04-28T00:36:10.480Z,4.80
2023-04-28T00:38:37.571Z,4.80
2023-04-28T00:41:04.661Z,4.70
2023-04-28T00:43:31.646Z,4.70
2023-04-28T00:45:58.546Z,4.70
2023-04-28T00:48:25.510Z,4.70
2023-04-28T00:50:52.357Z,4.70
2023-04-28T00:53:19.299Z,4.60
2023-04-28T00:55:48.100Z,4.60
2023-04-28T00:58:15.067Z,4.50
2023-04-28T01:00:41.948Z,4.50
2023-04-28T01:03:09.309Z,4.50
2023-04-28T01:05:37.199Z,4.40
2023-04-28T01:08:04.806Z,4.40
2023-04-28T01:10:31.598Z,4.40
2023-04-28T01:12:58.497Z,4.40
2023-04-28T01:15:26.134Z,4.40
2023-04-28T01:17:54.145Z,4.40
2023-04-28T01:20:24.008Z,4.40
2023-04-28T01:22:50.795Z,4.40
2023-04-28T01:25:17.742Z,4.40
2023-04-28T01:27:44.507Z,4.30
2023-04-28T01:30:11.628Z,4.40
2023-04-28T01:32:38.464Z,4.40
2023-04-28T01:35:05.652Z,4.40
2023-04-28T01:37:32.419Z,4.30
2023-04-28T01:39:59.201Z,4.30
2023-04-28T01:42:26.045Z,4.20
2023-04-28T01:44:53.053Z,4.20
2023-04-28T01:47:20.491Z,4.20
2023-04-28T01:49:48.321Z,4.10
2023-04-28T01:52:15.279Z,4.10
2023-04-28T01:54:42.064Z,4.10
2023-04-28T01:57:08.865Z,4.00
2023-04-28T01:59:35.825Z,4.00
2023-04-28T02:02:02.716Z,4.00
2023-04-28T02:04:29.727Z,3.90
2023-04-28T02:06:56.521Z,3.90
2023-04-28T02:09:23.337Z,3.90
2023-04-28T02:11:50.410Z,3.90
2023-04-28T02:14:17.736Z,3.90
2023-04-28T02:16:44.826Z,3.90
2023-04-28T02:19:11.604Z,3.80
2023-04-28T02:21:38.445Z,3.80
2023-04-28T02:24:05.624Z,3.80
2023-04-28T02:26:33.982Z,3.70
2023-04-28T02:29:01.122Z,3.70
2023-04-28T02:31:27.964Z,3.70
2023-04-28T02:33:54.786Z,3.60
2023-04-28T02:36:21.845Z,3.50
2023-04-28T02:38:48.719Z,3.50
2023-04-28T02:41:15.657Z,3.50
2023-04-28T02:43:42.567Z,3.40
2023-04-28T02:46:09.450Z,3.40
2023-04-28T02:48:36.786Z,3.40
2023-04-28T02:51:03.856Z,3.50
2023-04-28T02:53:30.933Z,3.40
2023-04-28T02:55:58.071Z,3.40
2023-04-28T02:58:24.849Z,3.40
2023-04-28T03:00:51.676Z,3.40
2023-04-28T03:03:18.659Z,3.40
2023-04-28T03:05:46.154Z,3.30
2023-04-28T03:08:12.972Z,3.40
2023-04-28T03:10:39.750Z,3.30
2023-04-28T03:13:07.189Z,3.30
2023-04-28T03:15:34.057Z,3.30
2023-04-28T03:18:01.249Z,3.30
2023-04-28T03:20:28.205Z,3.30
2023-04-28T03:22:55.036Z,3.40
2023-04-28T03:25:21.819Z,3.40
2023-04-28T03:27:48.620Z,3.50
2023-04-28T03:30:15.598Z,3.50
2023-04-28T03:32:42.556Z,3.40
2023-04-28T03:35:09.694Z,3.40
2023-04-28T03:37:36.461Z,3.50
2023-04-28T03:40:03.441Z,3.50
2023-04-28T03:42:30.473Z,3.50
2023-04-28T03:44:57.303Z,3.50
2023-04-28T03:47:24.154Z,3.60
2023-04-28T03:49:52.148Z,3.60
2023-04-28T03:52:20.232Z,3.60
2023-04-28T03:54:47.344Z,3.70
2023-04-28T03:57:14.122Z,3.70
2023-04-28T03:59:41.050Z,3.90
2023-04-28T04:02:08.302Z,3.90
2023-04-28T04:04:35.387Z,3.90
2023-04-28T04:07:02.765Z,3.90
2023-04-28T04:09:29.829Z,3.90
2023-04-28T04:11:56.591Z,4.00
2023-04-28T04:14:23.375Z,4.00
2023-04-28T04:16:50.234Z,4.00
2023-04-28T04:19:17.179Z,4.10
2023-04-28T04:21:44.017Z,4.10
2023-04-28T04:24:10.793Z,4.20
2023-04-28T04:26:37.700Z,4.20
2023-04-28T04:29:04.563Z,4.30
2023-04-28T04:31:31.762Z,4.30
2023-04-28T04:33:59.226Z,4.30
2023-04-28T04:36:26.538Z,4.30
2023-04-28T04:38:54.531Z,4.30
2023-04-28T04:41:22.046Z,4.40
2023-04-28T04:43:49.004Z,4.40
2023-04-28T04:46:15.892Z,4.50
2023-04-28T04:48:43.302Z,4.50
2023-04-28T04:51:10.188Z,4.60
2023-04-28T04:53:37.263Z,4.70
2023-04-28T04:56:04.272Z,4.70
2023-04-28T04:58:31.298Z,4.80
2023-04-28T05:00:58.102Z,4.80
2023-04-28T05:03:25.149Z,4.90
2023-04-28T05:05:52.058Z,4.90
2023-04-28T05:08:20.345Z,5.00
2023-04-28T05:10:50.196Z,5.00
2023-04-28T05:13:17.040Z,5.10
2023-04-28T05:15:44.346Z,5.30
2023-04-28T05:18:11.553Z,5.30
2023-04-28T05:20:38.412Z,5.50
2023-04-28T05:23:06.012Z,5.50
2023-04-28T05:25:33.120Z,5.60
2023-04-28T05:28:05.431Z,5.60
2023-04-28T05:30:35.504Z,5.40
2023-04-28T05:33:02.496Z,5.60
2023-04-28T05:35:31.129Z,5.80
2023-04-28T05:37:58.974Z,5.90
2023-04-28T05:40:26.660Z,6.00
2023-04-28T05:42:53.699Z,6.10
2023-04-28T05:45:20.732Z,6.10
2023-04-28T05:47:47.766Z,6.20
2023-04-28T05:50:14.683Z,6.30
2023-04-28T05:52:41.484Z,6.40
2023-04-28T05:55:08.653Z,6.50
2023-04-28T05:57:49.194Z,6.60
2023-04-28T06:00:19.857Z,6.70
2023-04-28T06:02:46.842Z,6.70
2023-04-28T06:05:13.921Z,6.80
2023-04-28T06:07:41.009Z,6.70
2023-04-28T06:10:09.515Z,6.70
2023-04-28T06:12:37.403Z,6.80
2023-04-28T06:15:05.872Z,6.90
2023-04-28T06:17:33.571Z,7.10
2023-04-28T06:20:00.701Z,7.20
2023-04-28T06:22:27.731Z,7.40
2023-04-28T06:24:54.530Z,7.50
2023-04-28T06:27:21.358Z,7.60
2023-04-28T06:29:49.285Z,7.70
2023-04-28T06:32:16.309Z,7.70
2023-04-28T06:34:43.182Z,7.70
2023-04-28T06:37:09.995Z,7.90
2023-04-28T06:39:37.065Z,8.00
2023-04-28T06:42:04.207Z,8.10
2023-04-28T06:44:31.039Z,8.10
2023-04-28T06:46:57.882Z,8.20
2023-04-28T06:49:24.738Z,8.30
2023-04-28T06:51:52.276Z,8.40
2023-04-28T06:54:19.618Z,8.40
2023-04-28T06:56:49.202Z,8.40
2023-04-28T06:59:16.107Z,8.40
2023-04-28T07:01:42.992Z,8.50
2023-04-28T07:04:18.673Z,8.70
2023-04-28T07:06:45.840Z,8.90
2023-04-28T07:09:12.969Z,9.00
2023-04-28T07:11:43.092Z,9.20
2023-04-28T07:14:09.938Z,9.30
2023-04-28T07:16:45.975Z,9.20
2023-04-28T07:19:12.843Z,9.40
2023-04-28T07:21:39.988Z,9.40
2023-04-28T07:24:07.170Z,9.50
2023-04-28T07:26:44.217Z,9.50
2023-04-28T07:29:13.528Z,9.50
2023-04-28T07:31:40.805Z,9.60
2023-04-28T07:34:07.642Z,9.70
2023-04-28T07:36:34.829Z,9.80
2023-04-28T07:39:02.223Z,9.80
2023-04-28T07:41:29.385Z,9.90
2023-04-28T07:43:56.285Z,10.10
2023-04-28T07:46:26.392Z,10.10
2023-04-28T07:48:54.872Z,10.20
2023-04-28T07:51:21.830Z,10.20
2023-04-28T07:53:48.772Z,9.90
2023-04-28T07:56:16.272Z,10.10
2023-04-28T07:58:43.088Z,10.10
2023-04-28T08:01:09.971Z,10.10
2023-04-28T08:03:37.237Z,10.10
2023-04-28T08:06:05.461Z,10.50
2023-04-28T08:08:32.381Z,11.70
2023-04-28T08:11:00.374Z,13.10
2023-04-28T08:13:28.982Z,13.50
2023-04-28T08:15:57.021Z,13.10
2023-04-28T08:18:25.562Z,12.80
2023-04-28T08:20:53.521Z,12.50
2023-04-28T08:23:20.713Z,13.10
2023-04-28T08:25:48.122Z,14.20
2023-04-28T08:28:15.004Z,14.50
2023-04-28T08:30:41.865Z,14.80
2023-04-28T08:33:08.941Z,15.50
2023-04-28T08:35:35.880Z,16.30
2023-04-28T08:38:03.709Z,16.90
2023-04-28T08:40:31.568Z,17.30
2023-04-28T08:43:01.138Z,17.10
2023-04-28T08:45:30.631Z,17.20
2023-04-28T08:48:00.310Z,17.80
2023-04-28T08:50:31.399Z,16.70
2023-04-28T08:52:58.751Z,16.60
2023-04-28T08:55:27.268Z,16.50
2023-04-28T08:57:55.246Z,15.80
2023-04-28T09:00:22.148Z,15.50
2023-04-28T09:02:49.053Z,15.20
2023-04-28T09:05:16.344Z,15.10
2023-04-28T09:10:24.757Z,14.40
2023-04-28T09:12:53.583Z,13.90
2023-04-28T09:15:31.202Z,13.60
2023-04-28T09:17:59.711Z,13.60
2023-04-28T09:20:29.080Z,13.40
2023-04-28T09:22:57.282Z,12.30
2023-04-28T09:25:24.398Z,12.50
2023-04-28T09:27:51.282Z,12.80
2023-04-28T09:30:19.434Z,13.00
2023-04-28T09:32:46.265Z,13.00
2023-04-28T09:35:13.084Z,13.10
2023-04-28T09:37:40.278Z,13.30
2023-04-28T09:40:09.548Z,13.30
2023-04-28T09:42:41.657Z,13.30
2023-04-28T09:45:11.418Z,13.00
2023-04-28T09:47:39.956Z,13.00
2023-04-28T09:50:11.789Z,13.30
2023-04-28T09:52:39.010Z,13.50
2023-04-28T09:55:08.869Z,14.00
2023-04-28T09:57:37.550Z,14.40
2023-04-28T10:00:06.726Z,14.40
2023-04-28T10:05:12.885Z,13.70
2023-04-28T10:07:42.026Z,13.50
2023-04-28T10:10:09.669Z,13.50
2023-04-28T10:12:39.373Z,13.60
2023-04-28T10:15:09.651Z,13.40
2023-04-28T10:17:37.370Z,13.30
2023-04-28T10:20:06.494Z,13.60
2023-04-28T10:22:58.393Z,14.20
2023-04-28T10:25:26.754Z,14.70
2023-04-28T10:27:54.261Z,15.30
2023-04-28T10:30:28.665Z,15.70
2023-04-28T10:33:14.961Z,16.10
2023-04-28T10:35:48.241Z,15.40
2023-04-28T10:38:16.898Z,15.40
2023-04-28T10:40:51.583Z,16.00
2023-04-28T10:43:31.839Z,16.70
2023-04-28T10:46:02.447Z,17.80
2023-04-28T10:48:37.959Z,18.70
2023-04-28T10:51:09.627Z,18.00
2023-04-28T10:53:59.220Z,17.90
2023-04-28T10:56:27.668Z,17.20
2023-04-28T10:58:58.810Z,16.90
2023-04-28T11:01:26.632Z,16.90
2023-04-28T11:04:00.895Z,17.00
2023-04-28T11:06:31.711Z,16.70
2023-04-28T11:09:01.745Z,16.60
2023-04-28T11:11:33.058Z,16.50
2023-04-28T11:14:18.500Z,16.20
2023-04-28T11:17:03.325Z,16.30
2023-04-28T11:19:33.567Z,17.00
2023-04-28T11:22:03.689Z,18.00
2023-04-28T11:24:34.090Z,19.10
2023-04-28T11:27:10.372Z,19.60
2023-04-28T11:29:38.995Z,19.40
2023-04-28T11:32:07.331Z,19.10
2023-04-28T11:34:39.728Z,19.30
2023-04-28T11:37:08.685Z,19.60
2023-04-28T11:40:01.934Z,20.20
2023-04-28T11:42:29.442Z,20.90
2023-04-28T11:44:56.512Z,21.10
2023-04-28T11:47:31.593Z,21.30
2023-04-28T11:49:59.554Z,22.00
2023-04-28T11:52:27.470Z,22.50
2023-04-28T12:01:11.901Z,23.80
2023-04-28T12:03:48.505Z,24.40
2023-04-28T12:06:19.060Z,24.90
2023-04-28T12:08:46.360Z,24.20
2023-04-28T12:11:14.681Z,22.90
2023-04-28T12:13:41.950Z,21.90
2023-04-28T12:16:11.688Z,20.30
2023-04-28T12:18:41.131Z,20.10
2023-04-28T12:21:29.149Z,20.20
2023-04-28T12:23:57.645Z,20.20
2023-04-28T12:26:27.427Z,19.80
2023-04-28T12:28:54.386Z,20.30
2023-04-28T12:31:21.809Z,20.50
2023-04-28T12:33:48.980Z,20.20
2023-04-28T12:36:17.578Z,19.80
2023-04-28T12:38:49.575Z,19.80
2023-04-28T12:41:19.550Z,19.40
2023-04-28T12:43:46.446Z,19.30
2023-04-28T12:46:15.814Z,19.90
2023-04-28T12:48:42.709Z,20.70
2023-04-28T12:51:09.561Z,21.80
2023-04-28T12:53:36.370Z,22.30
2023-04-28T12:56:03.283Z,20.70
2023-04-28T12:58:31.556Z,20.60
2023-04-28T13:00:58.373Z,20.70
2023-04-28T13:03:25.335Z,21.00
2023-04-28T13:05:52.214Z,20.90
2023-04-28T13:08:19.112Z,21.10
2023-04-28T13:10:46.532Z,21.60
2023-04-28T13:13:13.350Z,22.00
2023-04-28T13:15:40.255Z,22.30
2023-04-28T13:18:07.308Z,21.40
2023-04-28T13:20:34.255Z,21.30
2023-04-28T13:23:01.265Z,20.90
2023-04-28T13:25:29.141Z,20.60
2023-04-28T13:27:56.059Z,20.80
2023-04-28T13:30:23.016Z,21.40
2023-04-28T13:32:50.181Z,20.60
2023-04-28T13:35:17.677Z,20.30
2023-04-28T13:37:46.427Z,19.70
2023-04-28T13:40:13.563Z,19.10
